createdAt,value
2023-04-26T00:01:03.989Z,50.63
2023-04-26T00:03:08.315Z,51.30
2023-04-26T00:05:11.609Z,52.60
2023-04-26T00:07:15.782Z,53.61
2023-04-26T00:09:19.516Z,54.54
2023-04-26T00:11:23.064Z,54.56
2023-04-26T00:13:25.993Z,54.57
2023-04-26T00:15:28.838Z,54.76
2023-04-26T00:17:31.903Z,54.63
2023-04-26T00:19:36.936Z,54.71
2023-04-26T00:21:39.816Z,54.78
2023-04-26T00:23:43.121Z,55.13
2023-04-26T00:25:46.253Z,55.65
2023-04-26T00:27:49.914Z,55.46
2023-04-26T00:29:52.674Z,54.67
2023-04-26T00:32:01.400Z,54.88
2023-04-26T00:34:04.190Z,54.50
2023-04-26T00:36:08.849Z,53.97
2023-04-26T00:38:11.726Z,54.20
2023-04-26T00:40:16.131Z,54.19
2023-04-26T00:42:19.595Z,53.30
2023-04-26T00:44:22.490Z,54.08
2023-04-26T00:46:26.476Z,54.79
2023-04-26T00:48:29.931Z,55.43
2023-04-26T00:50:33.573Z,55.47
2023-04-26T00:52:39.742Z,55.86
2023-04-26T00:54:43.019Z,55.81
2023-04-26T00:56:45.983Z,55.90
2023-04-26T00:58:48.931Z,55.57
2023-04-26T01:00:51.818Z,55.07
2023-04-26T01:02:54.779Z,54.85
2023-04-26T01:04:57.658Z,55.61
2023-04-26T01:07:01.418Z,56.48
2023-04-26T01:09:09.931Z,57.09
2023-04-26T01:11:12.979Z,57.29
2023-04-26T01:13:16.460Z,56.51
2023-04-26T01:15:19.326Z,56.92
2023-04-26T01:17:22.165Z,56.83
2023-04-26T01:19:25.661Z,56.69
2023-04-26T01:21:28.551Z,56.93
2023-04-26T01:23:52.258Z,57.37
2023-04-26T01:25:56.278Z,57.87
2023-04-26T01:27:58.996Z,57.60
2023-04-26T01:30:01.747Z,57.47
2023-04-26T01:32:07.302Z,57.50
2023-04-26T01:34:10.338Z,57.89
2023-04-26T01:36:13.557Z,58.31
2023-04-26T01:38:17.808Z,57.83
2023-04-26T01:40:22.204Z,57.84
2023-04-26T01:42:25.151Z,57.98
2023-04-26T01:44:28.020Z,58.55
2023-04-26T01:46:30.851Z,58.38
2023-04-26T01:48:34.287Z,58.64
2023-04-26T01:50:37.106Z,59.09
2023-04-26T01:52:39.885Z,59.13
2023-04-26T01:54:42.860Z,59.49
2023-04-26T01:56:47.171Z,59.11
2023-04-26T01:58:50.300Z,58.20
2023-04-26T02:00:53.246Z,58.25
2023-04-26T02:02:56.484Z,58.16
2023-04-26T02:04:59.340Z,57.01
2023-04-26T02:07:03.032Z,57.48
2023-04-26T02:09:06.005Z,56.48
2023-04-26T02:11:08.856Z,56.45
2023-04-26T02:13:13.762Z,56.80
2023-04-26T02:15:16.652Z,56.72
2023-04-26T02:17:21.282Z,56.45
2023-04-26T02:19:24.260Z,56.64
2023-04-26T02:21:28.216Z,56.73
2023-04-26T02:23:31.311Z,56.50
2023-04-26T02:25:34.187Z,56.34
2023-04-26T02:27:37.063Z,56.56
2023-04-26T02:29:44.719Z,56.87
2023-04-26T02:31:49.286Z,57.33
2023-04-26T02:33:52.071Z,58.57
2023-04-26T02:35:54.909Z,59.51
2023-04-26T02:37:57.696Z,59.46
2023-04-26T02:40:01.381Z,59.84
2023-04-26T02:42:05.026Z,59.13
2023-04-26T02:44:08.244Z,58.96
2023-04-26T02:46:12.479Z,58.93
2023-04-26T02:48:15.486Z,59.92
2023-04-26T02:50:18.313Z,59.99
2023-04-26T02:52:21.349Z,59.38
2023-04-26T02:54:24.146Z,59.02
2023-04-26T02:56:28.006Z,59.43
2023-04-26T02:58:31.249Z,59.26
2023-04-26T03:00:35.021Z,58.19
2023-04-26T03:02:41.060Z,57.87
2023-04-26T03:04:44.084Z,58.84
2023-04-26T03:06:46.810Z,59.21
2023-04-26T03:08:49.828Z,59.49
2023-04-26T03:10:52.951Z,59.08
2023-04-26T03:12:55.690Z,59.68
2023-04-26T03:14:58.672Z,59.20
2023-04-26T03:17:02.973Z,59.56
2023-04-26T03:19:09.298Z,60.11
2023-04-26T03:21:13.270Z,60.29
2023-04-26T03:23:16.220Z,60.08
2023-04-26T03:25:19.562Z,60.11
2023-04-26T03:27:22.392Z,60.60
2023-04-26T03:29:25.255Z,60.56
2023-04-26T03:31:28.096Z,60.47
2023-04-26T03:33:31.650Z,60.39
2023-04-26T03:35:35.805Z,60.89
2023-04-26T03:37:39.937Z,60.80
2023-04-26T03:39:46.600Z,61.08
2023-04-26T03:41:50.152Z,61.52
2023-04-26T03:43:53.042Z,61.97
2023-04-26T03:45:56.318Z,62.22
2023-04-26T03:47:59.187Z,62.49
2023-04-26T03:50:02.390Z,62.89
2023-04-26T03:52:07.370Z,62.95
2023-04-26T03:54:11.132Z,63.00
2023-04-26T03:56:14.043Z,63.32
2023-04-26T03:58:16.883Z,63.90
2023-04-26T04:00:19.637Z,64.29
2023-04-26T04:02:24.148Z,64.47
2023-04-26T04:04:27.484Z,65.01
2023-04-26T04:06:30.855Z,64.89
2023-04-26T04:08:35.383Z,65.24
2023-04-26T04:10:38.392Z,64.95
2023-04-26T04:12:41.283Z,65.02
2023-04-26T04:14:44.362Z,64.99
2023-04-26T04:16:47.495Z,65.09
2023-04-26T04:18:50.955Z,65.10
2023-04-26T04:20:53.933Z,65.06
2023-04-26T04:22:57.708Z,65.28
2023-04-26T04:25:04.615Z,64.71
2023-04-26T04:27:07.517Z,64.24
2023-04-26T04:29:10.521Z,64.45
2023-04-26T04:31:14.263Z,64.59
2023-04-26T04:33:17.809Z,64.53
2023-04-26T04:35:20.924Z,64.19
2023-04-26T04:37:25.509Z,64.59
2023-04-26T04:39:28.532Z,64.49
2023-04-26T04:41:34.576Z,64.54
2023-04-26T04:43:37.418Z,64.67
2023-04-26T04:45:40.305Z,64.56
2023-04-26T04:47:44.000Z,64.40
2023-04-26T04:49:47.208Z,64.16
2023-04-26T04:51:50.022Z,63.96
2023-04-26T04:53:53.261Z,64.50
2023-04-26T04:55:56.903Z,64.30
2023-04-26T04:58:01.614Z,64.45
2023-04-26T05:00:10.258Z,64.42
2023-04-26T05:02:18.967Z,64.51
2023-04-26T05:04:22.339Z,64.41
2023-04-26T05:06:25.442Z,64.04
2023-04-26T05:08:28.433Z,64.44
2023-04-26T05:10:34.624Z,63.93
2023-04-26T05:12:38.059Z,63.97
2023-04-26T05:14:42.289Z,63.72
2023-04-26T05:16:45.224Z,63.73
2023-04-26T05:18:48.868Z,63.42
2023-04-26T05:20:51.752Z,63.60
2023-04-26T05:22:54.736Z,63.00
2023-04-26T05:24:57.682Z,62.83
2023-04-26T05:27:01.026Z,62.95
2023-04-26T05:29:09.662Z,62.29
2023-04-26T05:31:22.544Z,62.35
2023-04-26T05:33:45.792Z,62.69
2023-04-26T05:35:54.154Z,62.83
2023-04-26T05:37:58.070Z,62.46
2023-04-26T05:40:01.297Z,62.59
2023-04-26T05:42:04.348Z,62.57
2023-04-26T05:44:08.033Z,61.46
2023-04-26T05:46:10.915Z,61.64
2023-04-26T05:48:15.279Z,60.98
2023-04-26T05:50:18.399Z,60.96
2023-04-26T05:52:21.388Z,61.49
2023-04-26T05:54:24.890Z,61.53
2023-04-26T05:56:28.574Z,61.11
2023-04-26T05:58:33.678Z,61.61
2023-04-26T06:00:38.490Z,61.59
2023-04-26T06:02:42.917Z,60.95
2023-04-26T06:04:53.324Z,60.22
2023-04-26T06:06:56.258Z,58.85
2023-04-26T06:08:59.088Z,58.86
2023-04-26T06:11:01.912Z,59.04
2023-04-26T06:13:04.793Z,59.05
2023-04-26T06:15:12.337Z,59.55
2023-04-26T06:17:15.969Z,58.57
2023-04-26T06:19:19.356Z,58.27
2023-04-26T06:21:25.333Z,57.11
2023-04-26T06:23:28.269Z,57.93
2023-04-26T06:25:31.349Z,58.01
2023-04-26T06:27:34.256Z,57.93
2023-04-26T06:29:37.181Z,56.57
2023-04-26T06:31:40.086Z,56.82
2023-04-26T06:33:42.947Z,56.37
2023-04-26T06:35:46.393Z,55.99
2023-04-26T06:37:51.358Z,56.32
2023-04-26T06:39:54.227Z,56.64
2023-04-26T06:41:57.240Z,57.48
2023-04-26T06:44:22.783Z,57.84
2023-04-26T06:46:25.616Z,58.25
2023-04-26T06:48:29.742Z,58.07
2023-04-26T06:50:32.600Z,57.64
2023-04-26T06:52:35.469Z,57.61
2023-04-26T06:54:45.957Z,57.72
2023-04-26T06:56:52.961Z,57.36
2023-04-26T06:59:03.520Z,57.10
2023-04-26T07:01:08.519Z,55.37
2023-04-26T07:03:11.447Z,55.45
2023-04-26T07:05:15.226Z,56.41
2023-04-26T07:07:18.210Z,56.75
2023-04-26T07:09:21.054Z,56.81
2023-04-26T07:11:26.034Z,56.64
2023-04-26T07:13:29.311Z,56.51
2023-04-26T07:15:33.097Z,55.67
2023-04-26T07:17:36.198Z,54.30
2023-04-26T07:19:39.005Z,54.83
2023-04-26T07:21:41.872Z,54.07
2023-04-26T07:23:44.866Z,54.36
2023-04-26T07:25:47.992Z,53.59
2023-04-26T07:27:52.374Z,52.04
2023-04-26T07:29:56.139Z,53.43
2023-04-26T07:31:59.279Z,53.08
2023-04-26T07:34:02.027Z,53.46
2023-04-26T07:36:05.305Z,53.00
2023-04-26T07:38:08.965Z,55.79
2023-04-26T07:40:13.522Z,54.97
2023-04-26T07:42:16.575Z,54.14
2023-04-26T07:44:20.743Z,52.72
2023-04-26T07:46:23.700Z,52.38
2023-04-26T07:48:26.515Z,52.94
2023-04-26T07:50:29.452Z,53.24
2023-04-26T07:52:32.331Z,52.59
2023-04-26T07:54:35.195Z,53.25
2023-04-26T07:56:37.944Z,52.92
2023-04-26T07:58:40.826Z,51.80
2023-04-26T08:00:45.051Z,51.19
2023-04-26T08:02:48.011Z,51.51
2023-04-26T08:04:52.565Z,51.30
2023-04-26T08:06:56.762Z,50.37
2023-04-26T08:08:59.537Z,50.24
2023-04-26T08:11:02.390Z,50.69
2023-04-26T08:13:05.372Z,50.48
2023-04-26T08:15:09.129Z,49.30
2023-04-26T08:17:13.360Z,49.52
2023-04-26T08:19:17.472Z,49.51
2023-04-26T08:21:20.274Z,50.37
2023-04-26T08:23:23.554Z,48.20
2023-04-26T08:25:27.050Z,46.81
2023-04-26T08:27:29.840Z,47.60
2023-04-26T08:29:32.664Z,46.80
2023-04-26T08:31:35.993Z,48.21
2023-04-26T08:33:40.348Z,47.49
2023-04-26T08:35:43.158Z,45.85
2023-04-26T08:37:46.114Z,47.42
2023-04-26T08:39:48.906Z,47.32
2023-04-26T08:41:55.132Z,48.56
2023-04-26T08:43:59.124Z,50.00
2023-04-26T08:46:02.863Z,48.08
2023-04-26T08:48:13.365Z,48.54
2023-04-26T08:50:20.872Z,47.06
2023-04-26T08:52:24.545Z,47.21
2023-04-26T08:54:28.846Z,45.56
2023-04-26T08:56:32.195Z,44.78
2023-04-26T08:58:35.963Z,41.91
2023-04-26T09:00:39.214Z,42.13
2023-04-26T09:02:43.123Z,42.73
2023-04-26T09:04:46.964Z,43.24
2023-04-26T09:06:54.430Z,43.81
2023-04-26T09:08:59.346Z,42.46
2023-04-26T09:11:03.952Z,40.73
2023-04-26T09:13:06.820Z,41.44
2023-04-26T09:15:10.863Z,40.69
2023-04-26T09:17:26.954Z,39.58
2023-04-26T09:19:37.788Z,39.87
2023-04-26T09:21:45.330Z,39.10
2023-04-26T09:24:04.393Z,39.04
2023-04-26T09:26:17.066Z,39.49
2023-04-26T09:28:22.941Z,39.53
2023-04-26T09:30:26.014Z,40.65
2023-04-26T09:32:44.159Z,40.53
2023-04-26T09:34:47.956Z,41.50
2023-04-26T09:36:51.991Z,41.16
2023-04-26T09:38:54.811Z,41.67
2023-04-26T09:41:00.974Z,42.19
2023-04-26T09:43:05.368Z,41.31
2023-04-26T09:45:09.033Z,40.22
2023-04-26T09:47:13.173Z,40.20
2023-04-26T09:49:16.120Z,40.44
2023-04-26T09:51:18.929Z,40.07
2023-04-26T09:53:29.671Z,41.17
2023-04-26T09:55:35.357Z,40.02
2023-04-26T09:57:45.462Z,39.07
2023-04-26T09:59:49.829Z,38.63
2023-04-26T10:01:52.700Z,39.92
2023-04-26T10:03:56.871Z,39.63
2023-04-26T10:05:59.902Z,40.18
2023-04-26T10:08:04.064Z,41.18
2023-04-26T10:10:08.797Z,41.45
2023-04-26T10:12:12.324Z,41.53
2023-04-26T10:14:17.014Z,40.05
2023-04-26T10:16:21.812Z,39.98
2023-04-26T10:18:24.592Z,39.75
2023-04-26T10:20:30.141Z,39.85
2023-04-26T10:22:38.234Z,40.91
2023-04-26T10:24:41.432Z,41.11
2023-04-26T10:26:53.013Z,41.77
2023-04-26T10:29:01.968Z,42.41
2023-04-26T10:31:07.629Z,41.21
2023-04-26T10:33:14.751Z,40.02
2023-04-26T10:35:19.087Z,37.99
2023-04-26T10:37:21.916Z,39.71
2023-04-26T10:39:25.870Z,39.56
2023-04-26T10:41:33.195Z,40.07
2023-04-26T10:43:36.275Z,39.56
2023-04-26T10:45:39.979Z,40.47
2023-04-26T10:47:44.256Z,39.86
2023-04-26T10:49:48.271Z,41.04
2023-04-26T10:52:11.268Z,41.51
2023-04-26T10:54:14.262Z,41.70
2023-04-26T10:56:53.846Z,41.17
2023-04-26T10:59:30.674Z,40.11
2023-04-26T11:01:32.118Z,39.34
2023-04-26T11:03:37.161Z,38.26
2023-04-26T11:05:56.326Z,37.63
2023-04-26T11:08:19.117Z,36.46
2023-04-26T11:10:24.072Z,38.42
2023-04-26T11:12:26.898Z,37.79
2023-04-26T11:14:31.256Z,36.94
2023-04-26T11:16:35.212Z,36.46
2023-04-26T11:18:41.892Z,37.13
2023-04-26T11:20:46.132Z,35.99
2023-04-26T11:22:49.028Z,37.44
2023-04-26T11:24:51.900Z,37.43
2023-04-26T11:26:55.022Z,37.63
2023-04-26T11:28:57.945Z,36.07
2023-04-26T11:31:01.934Z,37.92
2023-04-26T11:33:05.172Z,36.95
2023-04-26T11:35:10.495Z,36.67
2023-04-26T11:37:13.405Z,37.61
2023-04-26T11:39:16.344Z,34.63
2023-04-26T11:41:19.269Z,33.62
2023-04-26T11:43:22.213Z,34.34
2023-04-26T11:45:25.006Z,35.44
2023-04-26T11:47:30.726Z,35.39
2023-04-26T11:49:34.464Z,34.44
2023-04-26T11:51:38.729Z,36.11
2023-04-26T11:53:42.915Z,37.09
2023-04-26T11:55:46.136Z,36.96
2023-04-26T11:57:48.933Z,37.50
2023-04-26T11:59:52.004Z,33.73
2023-04-26T12:01:54.786Z,34.88
2023-04-26T12:03:59.408Z,35.48
2023-04-26T12:06:02.529Z,37.19
2023-04-26T12:08:06.855Z,38.48
2023-04-26T12:10:16.498Z,37.39
2023-04-26T12:12:19.388Z,36.40
2023-04-26T12:14:23.025Z,35.91
2023-04-26T12:16:27.131Z,36.09
2023-04-26T12:18:33.693Z,36.73
2023-04-26T12:20:39.207Z,37.00
2023-04-26T12:22:42.150Z,36.02
2023-04-26T12:24:48.071Z,37.03
2023-04-26T12:26:50.975Z,37.03
2023-04-26T12:28:53.763Z,36.50
2023-04-26T12:30:56.979Z,36.36
2023-04-26T12:33:09.225Z,36.91
2023-04-26T12:35:18.993Z,35.98
2023-04-26T12:37:21.808Z,35.87
2023-04-26T12:39:24.732Z,36.60
2023-04-26T12:41:28.836Z,36.41
2023-04-26T12:43:32.842Z,33.16
2023-04-26T12:45:36.573Z,34.80
2023-04-26T12:47:39.861Z,36.41
2023-04-26T12:49:42.626Z,35.40
2023-04-26T12:51:46.088Z,33.48
2023-04-26T12:53:48.851Z,33.62
2023-04-26T12:55:51.686Z,33.52
2023-04-26T12:57:55.870Z,33.70
2023-04-26T12:59:58.765Z,32.75
2023-04-26T13:02:02.087Z,34.30
2023-04-26T13:04:05.975Z,33.09
2023-04-26T13:06:09.437Z,33.11
2023-04-26T13:08:12.480Z,32.06
2023-04-26T13:10:15.522Z,33.74
2023-04-26T13:12:18.341Z,35.39
2023-04-26T13:14:23.284Z,34.95
2023-04-26T13:16:26.441Z,33.81
2023-04-26T13:18:29.368Z,35.06
2023-04-26T13:20:32.220Z,34.23
2023-04-26T13:22:35.127Z,32.45
2023-04-26T13:24:38.252Z,33.92
2023-04-26T13:26:41.121Z,32.67
2023-04-26T13:28:43.912Z,32.63
2023-04-26T13:30:48.323Z,33.39
2023-04-26T13:32:51.526Z,32.59
2023-04-26T13:34:55.034Z,32.20
2023-04-26T13:36:58.836Z,33.26
2023-04-26T13:39:01.738Z,32.38
2023-04-26T13:41:04.586Z,32.59
2023-04-26T13:43:07.358Z,33.62
2023-04-26T13:45:11.106Z,33.24
2023-04-26T13:47:15.261Z,32.96
2023-04-26T13:49:18.109Z,32.33
2023-04-26T13:51:21.047Z,33.54
2023-04-26T13:53:23.949Z,34.06
2023-04-26T13:55:26.773Z,33.18
2023-04-26T13:57:29.554Z,32.16
2023-04-26T13:59:32.563Z,33.85
2023-04-26T14:01:36.890Z,31.85
2023-04-26T14:03:41.884Z,32.74
2023-04-26T14:05:44.857Z,33.67
2023-04-26T14:07:47.645Z,33.60
2023-04-26T14:09:52.015Z,33.99
2023-04-26T14:12:07.131Z,33.46
2023-04-26T14:14:11.167Z,32.35
2023-04-26T14:16:13.965Z,33.13
2023-04-26T14:18:17.533Z,33.87
2023-04-26T14:20:22.142Z,33.13
2023-04-26T14:22:25.887Z,33.69
2023-04-26T14:24:28.685Z,33.72
2023-04-26T14:26:31.462Z,34.03
2023-04-26T14:28:34.290Z,33.91
2023-04-26T14:30:37.130Z,33.67
2023-04-26T14:32:39.924Z,34.85
2023-04-26T14:34:42.872Z,35.17
2023-04-26T14:36:47.066Z,35.28
2023-04-26T14:38:49.931Z,34.81
2023-04-26T14:40:52.825Z,34.88
2023-04-26T14:42:55.670Z,34.39
2023-04-26T14:44:59.555Z,33.80
2023-04-26T14:47:02.309Z,34.57
2023-04-26T14:49:05.101Z,34.89
2023-04-26T14:51:07.967Z,35.07
2023-04-26T14:53:12.287Z,35.68
2023-04-26T14:55:18.288Z,35.39
2023-04-26T14:57:21.222Z,34.52
2023-04-26T14:59:24.098Z,35.45
2023-04-26T15:01:27.152Z,35.91
2023-04-26T15:03:30.116Z,35.73
2023-04-26T15:05:33.260Z,36.59
2023-04-26T15:07:36.421Z,35.86
2023-04-26T15:09:40.633Z,36.96
2023-04-26T15:11:43.456Z,36.84
2023-04-26T15:13:46.231Z,35.13
2023-04-26T15:15:48.966Z,34.89
2023-04-26T15:17:51.940Z,34.43
2023-04-26T15:19:54.757Z,34.42
2023-04-26T15:21:57.487Z,35.08
2023-04-26T15:24:00.336Z,35.84
2023-04-26T15:26:05.004Z,34.86
2023-04-26T15:28:07.672Z,35.17
2023-04-26T15:30:10.920Z,35.82
2023-04-26T15:32:13.719Z,36.05
2023-04-26T15:34:16.593Z,35.00
2023-04-26T15:36:20.477Z,36.04
2023-04-26T15:38:23.283Z,35.02
2023-04-26T15:40:27.510Z,34.82
2023-04-26T15:42:31.698Z,34.71
2023-04-26T15:44:35.166Z,35.86
2023-04-26T15:46:38.353Z,35.91
2023-04-26T15:48:41.365Z,34.95
2023-04-26T15:50:44.141Z,35.95
2023-04-26T15:52:46.917Z,35.69
2023-04-26T15:54:49.735Z,36.04
2023-04-26T15:56:52.941Z,35.70
2023-04-26T15:58:57.555Z,35.43
2023-04-26T16:01:00.228Z,34.60
2023-04-26T16:03:03.660Z,33.39
2023-04-26T16:05:08.197Z,33.18
2023-04-26T16:07:11.735Z,32.76
2023-04-26T16:09:25.302Z,33.99
2023-04-26T16:11:28.623Z,33.54
2023-04-26T16:13:33.461Z,33.38
2023-04-26T16:15:37.544Z,33.75
2023-04-26T16:17:40.455Z,33.65
2023-04-26T16:19:43.253Z,32.97
2023-04-26T16:21:47.018Z,33.85
2023-04-26T16:23:51.418Z,33.81
2023-04-26T16:25:57.418Z,34.00
2023-04-26T16:28:00.297Z,33.20
2023-04-26T16:30:03.867Z,34.23
2023-04-26T16:32:08.075Z,34.88
2023-04-26T16:34:11.326Z,34.61
2023-04-26T16:36:14.113Z,35.61
2023-04-26T16:38:17.250Z,34.81
2023-04-26T16:40:20.048Z,34.48
2023-04-26T16:42:22.903Z,33.27
2023-04-26T16:44:25.915Z,33.45
2023-04-26T16:46:28.826Z,34.51
2023-04-26T16:48:33.983Z,35.10
2023-04-26T16:50:36.909Z,34.61
2023-04-26T16:52:40.013Z,33.74
2023-04-26T16:54:42.833Z,34.68
2023-04-26T16:56:45.792Z,34.30
2023-04-26T16:58:48.557Z,34.03
2023-04-26T17:00:51.863Z,33.74
2023-04-26T17:02:54.888Z,34.47
2023-04-26T17:04:59.230Z,34.92
2023-04-26T17:07:02.092Z,35.08
2023-04-26T17:09:08.027Z,35.88
2023-04-26T17:11:14.059Z,36.41
2023-04-26T17:13:16.945Z,35.56
2023-04-26T17:15:19.916Z,36.25
2023-04-26T17:17:22.677Z,36.64
2023-04-26T17:19:25.851Z,37.02
2023-04-26T17:21:30.042Z,36.86
2023-04-26T17:23:33.766Z,37.56
2023-04-26T17:25:36.756Z,36.75
2023-04-26T17:27:39.540Z,36.20
2023-04-26T17:29:42.434Z,36.34
2023-04-26T17:31:45.446Z,36.56
2023-04-26T17:33:48.814Z,36.56
2023-04-26T17:35:51.661Z,36.04
2023-04-26T17:37:55.761Z,36.99
2023-04-26T17:39:58.614Z,36.94
2023-04-26T17:42:02.990Z,36.92
2023-04-26T17:44:05.869Z,36.57
2023-04-26T17:46:08.861Z,35.60
2023-04-26T17:48:13.179Z,35.81
2023-04-26T17:50:17.704Z,36.48
2023-04-26T17:52:20.548Z,36.20
2023-04-26T17:54:24.777Z,35.41
2023-04-26T17:56:27.577Z,36.79
2023-04-26T17:58:30.343Z,37.35
2023-04-26T18:00:33.169Z,37.54
2023-04-26T18:02:36.490Z,36.73
2023-04-26T18:04:39.718Z,36.96
2023-04-26T18:06:43.889Z,37.17
2023-04-26T18:08:47.069Z,37.81
2023-04-26T18:10:53.769Z,36.81
2023-04-26T18:12:56.613Z,36.92
2023-04-26T18:14:59.386Z,37.24
2023-04-26T18:17:02.365Z,37.48
2023-04-26T18:19:05.361Z,37.27
2023-04-26T18:21:08.206Z,37.15
2023-04-26T18:23:11.025Z,36.62
2023-04-26T18:25:13.843Z,37.05
2023-04-26T18:27:17.984Z,37.01
2023-04-26T18:29:20.929Z,37.38
2023-04-26T18:31:23.850Z,37.56
2023-04-26T18:33:27.098Z,37.83
2023-04-26T18:35:29.890Z,37.41
2023-04-26T18:37:32.951Z,37.36
2023-04-26T18:39:35.790Z,37.13
2023-04-26T18:41:38.636Z,37.27
2023-04-26T18:43:42.848Z,37.33
2023-04-26T18:45:45.608Z,37.65
2023-04-26T18:47:48.513Z,37.87
2023-04-26T18:49:51.553Z,37.59
2023-04-26T18:51:54.568Z,37.56
2023-04-26T18:53:57.386Z,38.49
2023-04-26T18:56:00.197Z,38.48
2023-04-26T18:58:03.463Z,38.79
2023-04-26T19:00:09.256Z,38.60
2023-04-26T19:02:12.200Z,38.42
2023-04-26T19:04:15.311Z,38.68
2023-04-26T19:06:18.331Z,38.17
2023-04-26T19:08:21.247Z,38.67
2023-04-26T19:10:24.272Z,38.93
2023-04-26T19:12:26.987Z,39.19
2023-04-26T19:14:29.784Z,39.13
2023-04-26T19:16:35.078Z,38.81
2023-04-26T19:18:40.410Z,39.18
2023-04-26T19:20:43.181Z,38.80
2023-04-26T19:22:46.362Z,38.85
2023-04-26T19:24:49.926Z,38.70
2023-04-26T19:26:52.718Z,38.83
2023-04-26T19:28:56.483Z,38.32
2023-04-26T19:30:59.438Z,38.39
2023-04-26T19:33:03.648Z,38.18
2023-04-26T19:35:07.323Z,38.74
2023-04-26T19:37:10.174Z,38.91
2023-04-26T19:39:13.020Z,39.13
2023-04-26T19:41:16.956Z,39.43
2023-04-26T19:43:19.894Z,39.23
2023-04-26T19:45:22.704Z,39.56
2023-04-26T19:47:26.713Z,39.57
2023-04-26T19:49:30.953Z,39.48
2023-04-26T19:51:33.818Z,38.83
2023-04-26T19:53:36.672Z,38.92
2023-04-26T19:55:40.883Z,38.46
2023-04-26T19:57:43.689Z,38.22
2023-04-26T19:59:46.535Z,38.06
2023-04-26T20:01:51.041Z,37.72
2023-04-26T20:03:56.030Z,37.85
2023-04-26T20:06:00.542Z,38.40
2023-04-26T20:08:03.463Z,38.25
2023-04-26T20:10:07.603Z,38.19
2023-04-26T20:12:10.974Z,38.39
2023-04-26T20:14:13.875Z,38.72
2023-04-26T20:16:17.059Z,38.89
2023-04-26T20:18:19.854Z,39.21
2023-04-26T20:20:22.708Z,40.09
2023-04-26T20:22:26.873Z,41.07
2023-04-26T20:24:29.811Z,40.09
2023-04-26T20:26:32.644Z,40.08
2023-04-26T20:28:35.941Z,40.15
2023-04-26T20:30:38.856Z,40.15
2023-04-26T20:32:41.846Z,40.10
2023-04-26T20:34:44.637Z,40.61
2023-04-26T20:36:47.672Z,40.15
2023-04-26T20:38:52.243Z,41.07
2023-04-26T20:40:55.196Z,41.34
2023-04-26T20:42:58.014Z,42.05
2023-04-26T20:45:02.260Z,42.49
2023-04-26T20:47:06.105Z,43.37
2023-04-26T20:49:09.252Z,43.62
2023-04-26T20:51:12.255Z,43.51
2023-04-26T20:53:14.987Z,43.40
2023-04-26T20:55:19.202Z,42.58
2023-04-26T20:57:22.127Z,42.22
2023-04-26T20:59:25.336Z,42.23
2023-04-26T21:01:28.271Z,42.90
2023-04-26T21:03:32.396Z,43.20
2023-04-26T21:05:35.746Z,43.64
2023-04-26T21:07:38.618Z,44.28
2023-04-26T21:09:41.803Z,44.55
2023-04-26T21:11:46.006Z,44.75
2023-04-26T21:13:49.359Z,44.47
2023-04-26T21:15:52.210Z,43.86
2023-04-26T21:17:55.207Z,44.09
2023-04-26T21:19:58.024Z,43.95
2023-04-26T21:22:00.787Z,44.54
2023-04-26T21:24:04.043Z,44.83
2023-04-26T21:26:06.860Z,44.50
2023-04-26T21:28:11.056Z,44.64
2023-04-26T21:30:14.572Z,45.15
2023-04-26T21:32:17.404Z,45.15
2023-04-26T21:34:20.265Z,44.98
2023-04-26T21:36:23.068Z,44.94
2023-04-26T21:38:26.087Z,44.40
2023-04-26T21:40:28.918Z,44.23
2023-04-26T21:42:32.061Z,45.03
2023-04-26T21:44:36.187Z,44.44
2023-04-26T21:46:38.994Z,43.13
2023-04-26T21:48:41.955Z,43.66
2023-04-26T21:50:44.893Z,43.84
2023-04-26T21:52:47.714Z,44.11
2023-04-26T21:54:52.795Z,44.32
2023-04-26T21:56:55.748Z,44.51
2023-04-26T21:58:58.768Z,45.54
2023-04-26T22:01:09.869Z,45.13
2023-04-26T22:03:13.057Z,45.83
2023-04-26T22:05:16.068Z,44.84
2023-04-26T22:07:18.839Z,45.15
2023-04-26T22:09:22.201Z,45.66
2023-04-26T22:11:25.007Z,45.91
2023-04-26T22:13:27.885Z,46.69
2023-04-26T22:15:30.934Z,46.15
2023-04-26T22:17:35.165Z,46.31
2023-04-26T22:19:37.944Z,46.39
2023-04-26T22:21:40.994Z,46.86
2023-04-26T22:23:43.895Z,47.22
2023-04-26T22:25:46.730Z,46.73
2023-04-26T22:27:49.752Z,47.41
2023-04-26T22:29:52.556Z,48.79
2023-04-26T22:31:55.763Z,49.73
2023-04-26T22:33:59.950Z,49.28
2023-04-26T22:36:02.942Z,49.45
2023-04-26T22:38:05.817Z,49.21
2023-04-26T22:40:11.306Z,49.66
2023-04-26T22:42:14.097Z,49.37
2023-04-26T22:44:16.908Z,49.43
2023-04-26T22:46:19.724Z,50.66
2023-04-26T22:48:22.561Z,51.59
2023-04-26T22:50:26.871Z,52.92
2023-04-26T22:52:31.850Z,53.17
2023-04-26T22:54:34.969Z,53.55
2023-04-26T22:56:37.791Z,53.82
2023-04-26T22:58:40.523Z,54.02
2023-04-26T23:00:43.551Z,54.52
2023-04-26T23:02:46.616Z,54.76
2023-04-26T23:04:49.967Z,55.54
2023-04-26T23:06:54.542Z,56.02
2023-04-26T23:08:57.329Z,55.89
2023-04-26T23:11:00.061Z,55.72
2023-04-26T23:13:03.772Z,56.17
2023-04-26T23:15:07.841Z,56.17
2023-04-26T23:17:11.877Z,55.83
2023-04-26T23:21:17.647Z,55.26
2023-04-26T23:23:21.781Z,54.72
2023-04-26T23:25:24.500Z,54.58
2023-04-26T23:27:27.665Z,54.13
2023-04-26T23:29:30.494Z,54.24
2023-04-26T23:31:33.354Z,54.48
2023-04-26T23:33:36.120Z,54.35
2023-04-26T23:35:41.540Z,54.62
2023-04-26T23:37:44.348Z,54.78
2023-04-26T23:39:48.546Z,54.90
2023-04-26T23:41:51.455Z,55.03
2023-04-26T23:43:54.237Z,55.30
2023-04-26T23:45:57.092Z,55.60
2023-04-26T23:48:00.076Z,55.64
2023-04-26T23:50:02.939Z,55.55
2023-04-26T23:52:06.114Z,55.83
2023-04-26T23:54:08.978Z,55.81
2023-04-26T23:56:13.218Z,56.69
2023-04-26T23:58:16.023Z,56.22
